sensor_id;sensor_type;location;lat;lon;timestamp;P1;durP1;ratioP1;P2;durP2;ratioP2
7823;SDS011;3957;48.61947800;9.05303100;2023-01-23T00:01:04;13.32;;;9.77;;
7823;SDS011;3957;48.61947800;9.05303100;2023-01-23T00:02:06;12.73;;;9.65;;
7823;SDS011;3957;48.61947800;9.05303100;2023-01-23T00:03:07;13.57;;;9.93;;
7823;SDS011;3957;48.61947800;9.05303100;2023-01-23T00:04:08;14.82;;;10.98;;
7823;SDS011;3957;48.61947800;9.05303100;2023-01-23T00:05:11;11.73;;;9.50;;
7823;SDS011;3957;48.61947800;9.05303100;2023-01-23T00:06:12;12.38;;;9.48;;
7823;SDS011;3957;48.61947800;9.05303100;2023-01-23T00:07:14;12.40;;;9.38;;
7823;SDS011;3957;48.61947800;9.05303100;2023-01-23T00:08:14;14.35;;;10.40;;
7823;SDS011;3957;48.61947800;9.05303100;2023-01-23T00:09:14;13.87;;;9.57;;
7823;SDS011;3957;48.61947800;9.05303100;2023-01-23T00:10:15;13.07;;;9.90;;
7823;SDS011;3957;48.61947800;9.05303100;2023-01-23T00:11:19;14.90;;;10.00;;
7823;SDS011;3957;48.61947800;9.05303100;2023-01-23T00:12:21;12.10;;;9.60;;
7823;SDS011;3957;48.61947800;9.05303100;2023-01-23T00:13:21;13.02;;;9.13;;
7823;SDS011;3957;48.61947800;9.05303100;2023-01-23T00:14:22;12.53;;;9.03;;
7823;SDS011;3957;48.61947800;9.05303100;2023-01-23T00:15:22;13.90;;;9.13;;
7823;SDS011;3957;48.61947800;9.05303100;2023-01-23T00:16:24;15.03;;;9.90;;
7823;SDS011;3957;48.61947800;9.05303100;2023-01-23T00:17:25;13.45;;;9.02;;
7823;SDS011;3957;48.61947800;9.05303100;2023-01-23T00:18:28;12.35;;;8.98;;
7823;SDS011;3957;48.61947800;9.05303100;2023-01-23T00:19:29;12.70;;;9.50;;
7823;SDS011;3957;48.61947800;9.05303100;2023-01-23T00:20:29;13.53;;;9.73;;
7823;SDS011;3957;48.61947800;9.05303100;2023-01-23T00:21:30;11.73;;;9.00;;
7823;SDS011;3957;48.61947800;9.05303100;2023-01-23T00:22:30;13.90;;;9.50;;
7823;SDS011;3957;48.61947800;9.05303100;2023-01-23T00:23:31;13.43;;;9.17;;
7823;SDS011;3957;48.61947800;9.05303100;2023-01-23T00:24:31;12.52;;;9.10;;
7823;SDS011;3957;48.61947800;9.05303100;2023-01-23T00:25:32;13.25;;;9.13;;
7823;SDS011;3957;48.61947800;9.05303100;2023-01-23T00:26:33;12.70;;;9.52;;
7823;SDS011;3957;48.61947800;9.05303100;2023-01-23T00:27:34;13.00;;;9.83;;
7823;SDS011;3957;48.61947800;9.05303100;2023-01-23T00:28:34;13.13;;;8.83;;
7823;SDS011;3957;48.61947800;9.05303100;2023-01-23T00:29:34;12.50;;;9.83;;
7823;SDS011;3957;48.61947800;9.05303100;2023-01-23T00:30:35;13.77;;;10.20;;
7823;SDS011;3957;48.61947800;9.05303100;2023-01-23T00:31:36;13.70;;;9.70;;
7823;SDS011;3957;48.61947800;9.05303100;2023-01-23T00:32:38;12.35;;;9.10;;
7823;SDS011;3957;48.61947800;9.05303100;2023-01-23T00:33:39;12.38;;;8.85;;
7823;SDS011;3957;48.61947800;9.05303100;2023-01-23T00:34:40;13.85;;;9.85;;
7823;SDS011;3957;48.61947800;9.05303100;2023-01-23T00:35:40;13.43;;;9.97;;
7823;SDS011;3957;48.61947800;9.05303100;2023-01-23T00:36:41;13.38;;;9.45;;
7823;SDS011;3957;48.61947800;9.05303100;2023-01-23T00:37:43;15.27;;;9.93;;
7823;SDS011;3957;48.61947800;9.05303100;2023-01-23T00:38:44;14.07;;;10.05;;
7823;SDS011;3957;48.61947800;9.05303100;2023-01-23T00:39:48;14.55;;;10.13;;
7823;SDS011;3957;48.61947800;9.05303100;2023-01-23T00:40:49;14.82;;;9.95;;
7823;SDS011;3957;48.61947800;9.05303100;2023-01-23T00:41:50;15.40;;;10.40;;
7823;SDS011;3957;48.61947800;9.05303100;2023-01-23T00:42:50;14.63;;;9.80;;
7823;SDS011;3957;48.61947800;9.05303100;2023-01-23T00:43:51;13.07;;;9.02;;
7823;SDS011;3957;48.61947800;9.05303100;2023-01-23T00:44:52;13.68;;;9.63;;
7823;SDS011;3957;48.61947800;9.05303100;2023-01-23T00:45:52;15.23;;;10.00;;
7823;SDS011;3957;48.61947800;9.05303100;2023-01-23T00:46:52;16.07;;;10.77;;
7823;SDS011;3957;48.61947800;9.05303100;2023-01-23T00:47:53;14.03;;;9.50;;
7823;SDS011;3957;48.61947800;9.05303100;2023-01-23T00:48:53;15.70;;;9.60;;
7823;SDS011;3957;48.61947800;9.05303100;2023-01-23T00:49:54;13.77;;;10.23;;
7823;SDS011;3957;48.61947800;9.05303100;2023-01-23T00:50:56;14.00;;;10.20;;
7823;SDS011;3957;48.61947800;9.05303100;2023-01-23T00:51:56;14.95;;;10.82;;
7823;SDS011;3957;48.61947800;9.05303100;2023-01-23T00:52:57;14.30;;;10.30;;
7823;SDS011;3957;48.61947800;9.05303100;2023-01-23T00:53:58;15.68;;;10.85;;
7823;SDS011;3957;48.61947800;9.05303100;2023-01-23T00:54:59;14.55;;;10.20;;
7823;SDS011;3957;48.61947800;9.05303100;2023-01-23T00:55:59;13.55;;;9.98;;
7823;SDS011;3957;48.61947800;9.05303100;2023-01-23T00:57:00;14.68;;;10.02;;
7823;SDS011;3957;48.61947800;9.05303100;2023-01-23T00:58:00;15.13;;;10.33;;
7823;SDS011;3957;48.61947800;9.05303100;2023-01-23T00:59:01;15.77;;;10.83;;
7823;SDS011;3957;48.61947800;9.05303100;2023-01-23T01:00:02;14.52;;;9.75;;
7823;SDS011;3957;48.61947800;9.05303100;2023-01-23T01:01:03;14.38;;;10.45;;
7823;SDS011;3957;48.61947800;9.05303100;2023-01-23T01:02:05;14.30;;;10.02;;
7823;SDS011;3957;48.61947800;9.05303100;2023-01-23T01:03:06;14.98;;;10.90;;
7823;SDS011;3957;48.61947800;9.05303100;2023-01-23T01:04:08;14.35;;;9.65;;
7823;SDS011;3957;48.61947800;9.05303100;2023-01-23T01:05:09;16.25;;;10.70;;
7823;SDS011;3957;48.61947800;9.05303100;2023-01-23T01:06:09;14.17;;;10.23;;
7823;SDS011;3957;48.61947800;9.05303100;2023-01-23T01:07:11;14.33;;;10.97;;
7823;SDS011;3957;48.61947800;9.05303100;2023-01-23T01:08:11;14.70;;;10.10;;
7823;SDS011;3957;48.61947800;9.05303100;2023-01-23T01:09:12;13.63;;;10.15;;
7823;SDS011;3957;48.61947800;9.05303100;2023-01-23T01:10:13;15.97;;;11.03;;
7823;SDS011;3957;48.61947800;9.05303100;2023-01-23T01:11:14;14.13;;;10.48;;
7823;SDS011;3957;48.61947800;9.05303100;2023-01-23T01:12:14;13.73;;;9.95;;
7823;SDS011;3957;48.61947800;9.05303100;2023-01-23T01:13:15;14.83;;;10.43;;
7823;SDS011;3957;48.61947800;9.05303100;2023-01-23T01:14:20;15.23;;;10.40;;
7823;SDS011;3957;48.61947800;9.05303100;2023-01-23T01:15:21;13.97;;;9.90;;
7823;SDS011;3957;48.61947800;9.05303100;2023-01-23T01:16:21;13.05;;;9.98;;
7823;SDS011;3957;48.61947800;9.05303100;2023-01-23T01:17:23;13.15;;;9.77;;
7823;SDS011;3957;48.61947800;9.05303100;2023-01-23T01:18:24;13.00;;;9.80;;
7823;SDS011;3957;48.61947800;9.05303100;2023-01-23T01:19:24;14.37;;;10.70;;
7823;SDS011;3957;48.61947800;9.05303100;2023-01-23T01:20:27;13.38;;;10.35;;
7823;SDS011;3957;48.61947800;9.05303100;2023-01-23T01:21:28;14.98;;;10.90;;
7823;SDS011;3957;48.61947800;9.05303100;2023-01-23T01:22:29;17.13;;;11.40;;
7823;SDS011;3957;48.61947800;9.05303100;2023-01-23T01:23:29;14.60;;;10.37;;
7823;SDS011;3957;48.61947800;9.05303100;2023-01-23T01:24:30;13.18;;;9.82;;
7823;SDS011;3957;48.61947800;9.05303100;2023-01-23T01:25:30;15.20;;;10.27;;
7823;SDS011;3957;48.61947800;9.05303100;2023-01-23T01:26:31;13.07;;;9.82;;
7823;SDS011;3957;48.61947800;9.05303100;2023-01-23T01:27:32;13.23;;;9.63;;
7823;SDS011;3957;48.61947800;9.05303100;2023-01-23T01:28:33;14.13;;;9.80;;
7823;SDS011;3957;48.61947800;9.05303100;2023-01-23T01:29:35;13.10;;;9.15;;
7823;SDS011;3957;48.61947800;9.05303100;2023-01-23T01:30:35;17.33;;;11.70;;
7823;SDS011;3957;48.61947800;9.05303100;2023-01-23T01:31:36;15.43;;;10.73;;
7823;SDS011;3957;48.61947800;9.05303100;2023-01-23T01:32:40;16.50;;;11.40;;
7823;SDS011;3957;48.61947800;9.05303100;2023-01-23T01:33:41;15.95;;;11.15;;
7823;SDS011;3957;48.61947800;9.05303100;2023-01-23T01:34:42;16.08;;;11.40;;
7823;SDS011;3957;48.61947800;9.05303100;2023-01-23T01:35:42;15.47;;;10.70;;
7823;SDS011;3957;48.61947800;9.05303100;2023-01-23T01:36:43;15.45;;;11.05;;
7823;SDS011;3957;48.61947800;9.05303100;2023-01-23T01:37:44;15.80;;;10.80;;
7823;SDS011;3957;48.61947800;9.05303100;2023-01-23T01:38:44;14.88;;;10.43;;
7823;SDS011;3957;48.61947800;9.05303100;2023-01-23T01:39:45;15.38;;;10.90;;
7823;SDS011;3957;48.61947800;9.05303100;2023-01-23T01:40:46;13.43;;;9.63;;
7823;SDS011;3957;48.61947800;9.05303100;2023-01-23T01:41:46;14.23;;;9.77;;
7823;SDS011;3957;48.61947800;9.05303100;2023-01-23T01:42:48;12.47;;;9.23;;
7823;SDS011;3957;48.61947800;9.05303100;2023-01-23T01:43:52;15.85;;;10.55;;
7823;SDS011;3957;48.61947800;9.05303100;2023-01-23T01:44:59;15.90;;;10.40;;
7823;SDS011;3957;48.61947800;9.05303100;2023-01-23T01:47:10;13.23;;;9.75;;
7823;SDS011;3957;48.61947800;9.05303100;2023-01-23T01:48:14;15.50;;;10.15;;
7823;SDS011;3957;48.61947800;9.05303100;2023-01-23T01:49:27;14.27;;;10.32;;
7823;SDS011;3957;48.61947800;9.05303100;2023-01-23T01:50:30;15.10;;;10.32;;
7823;SDS011;3957;48.61947800;9.05303100;2023-01-23T01:51:41;15.63;;;10.52;;
7823;SDS011;3957;48.61947800;9.05303100;2023-01-23T01:52:46;14.57;;;10.32;;
7823;SDS011;3957;48.61947800;9.05303100;2023-01-23T01:53:48;14.10;;;9.80;;
7823;SDS011;3957;48.61947800;9.05303100;2023-01-23T01:55:02;13.23;;;9.68;;
7823;SDS011;3957;48.61947800;9.05303100;2023-01-23T01:56:04;11.75;;;9.38;;
7823;SDS011;3957;48.61947800;9.05303100;2023-01-23T01:57:13;13.20;;;9.50;;
7823;SDS011;3957;48.61947800;9.05303100;2023-01-23T01:58:20;15.30;;;10.13;;
7823;SDS011;3957;48.61947800;9.05303100;2023-01-23T01:59:21;15.02;;;10.20;;
7823;SDS011;3957;48.61947800;9.05303100;2023-01-23T02:00:24;13.73;;;9.67;;
7823;SDS011;3957;48.61947800;9.05303100;2023-01-23T02:01:25;12.77;;;9.33;;
7823;SDS011;3957;48.61947800;9.05303100;2023-01-23T02:02:32;14.50;;;10.38;;
7823;SDS011;3957;48.61947800;9.05303100;2023-01-23T02:03:36;14.10;;;9.50;;
7823;SDS011;3957;48.61947800;9.05303100;2023-01-23T02:04:38;15.00;;;10.07;;
7823;SDS011;3957;48.61947800;9.05303100;2023-01-23T02:05:42;15.80;;;10.43;;
7823;SDS011;3957;48.61947800;9.05303100;2023-01-23T02:06:44;15.00;;;10.30;;
7823;SDS011;3957;48.61947800;9.05303100;2023-01-23T02:09:02;15.27;;;10.13;;
7823;SDS011;3957;48.61947800;9.05303100;2023-01-23T02:10:08;14.83;;;10.23;;
7823;SDS011;3957;48.61947800;9.05303100;2023-01-23T02:11:13;16.38;;;10.65;;
7823;SDS011;3957;48.61947800;9.05303100;2023-01-23T02:12:15;14.75;;;10.88;;
7823;SDS011;3957;48.61947800;9.05303100;2023-01-23T02:14:32;14.40;;;10.25;;
7823;SDS011;3957;48.61947800;9.05303100;2023-01-23T02:15:33;15.70;;;10.60;;
7823;SDS011;3957;48.61947800;9.05303100;2023-01-23T02:16:34;15.13;;;10.20;;
7823;SDS011;3957;48.61947800;9.05303100;2023-01-23T02:17:39;15.75;;;10.65;;
7823;SDS011;3957;48.61947800;9.05303100;2023-01-23T02:18:41;15.30;;;10.32;;
7823;SDS011;3957;48.61947800;9.05303100;2023-01-23T02:21:07;16.38;;;10.48;;
7823;SDS011;3957;48.61947800;9.05303100;2023-01-23T02:22:15;15.40;;;10.67;;
7823;SDS011;3957;48.61947800;9.05303100;2023-01-23T02:25:01;14.68;;;10.25;;
7823;SDS011;3957;48.61947800;9.05303100;2023-01-23T02:26:19;14.05;;;9.98;;
7823;SDS011;3957;48.61947800;9.05303100;2023-01-23T02:27:23;14.15;;;10.63;;
7823;SDS011;3957;48.61947800;9.05303100;2023-01-23T02:28:35;15.18;;;9.90;;
7823;SDS011;3957;48.61947800;9.05303100;2023-01-23T02:29:39;16.35;;;10.70;;
7823;SDS011;3957;48.61947800;9.05303100;2023-01-23T02:30:42;15.18;;;10.70;;
7823;SDS011;3957;48.61947800;9.05303100;2023-01-23T02:31:46;15.25;;;10.43;;
7823;SDS011;3957;48.61947800;9.05303100;2023-01-23T02:32:48;14.07;;;9.90;;
7823;SDS011;3957;48.61947800;9.05303100;2023-01-23T02:33:50;17.20;;;10.93;;
7823;SDS011;3957;48.61947800;9.05303100;2023-01-23T02:34:53;14.70;;;10.18;;
7823;SDS011;3957;48.61947800;9.05303100;2023-01-23T02:35:58;15.05;;;10.35;;
7823;SDS011;3957;48.61947800;9.05303100;2023-01-23T02:37:19;16.55;;;10.95;;
7823;SDS011;3957;48.61947800;9.05303100;2023-01-23T02:38:26;15.27;;;10.40;;
7823;SDS011;3957;48.61947800;9.05303100;2023-01-23T02:39:31;14.85;;;10.25;;
7823;SDS011;3957;48.61947800;9.05303100;2023-01-23T02:40:32;15.90;;;11.18;;
7823;SDS011;3957;48.61947800;9.05303100;2023-01-23T02:41:42;17.60;;;10.82;;
7823;SDS011;3957;48.61947800;9.05303100;2023-01-23T02:42:45;14.55;;;10.55;;
7823;SDS011;3957;48.61947800;9.05303100;2023-01-23T02:43:49;15.65;;;10.70;;
7823;SDS011;3957;48.61947800;9.05303100;2023-01-23T02:44:50;15.60;;;11.43;;
7823;SDS011;3957;48.61947800;9.05303100;2023-01-23T02:45:53;15.55;;;10.60;;
7823;SDS011;3957;48.61947800;9.05303100;2023-01-23T02:46:54;16.13;;;10.88;;
7823;SDS011;3957;48.61947800;9.05303100;2023-01-23T02:47:59;16.30;;;11.40;;
7823;SDS011;3957;48.61947800;9.05303100;2023-01-23T02:49:00;16.87;;;11.13;;
7823;SDS011;3957;48.61947800;9.05303100;2023-01-23T02:50:01;15.35;;;10.80;;
7823;SDS011;3957;48.61947800;9.05303100;2023-01-23T02:51:02;17.08;;;11.63;;
7823;SDS011;3957;48.61947800;9.05303100;2023-01-23T02:52:03;17.00;;;11.30;;
7823;SDS011;3957;48.61947800;9.05303100;2023-01-23T02:53:06;15.15;;;10.95;;
7823;SDS011;3957;48.61947800;9.05303100;2023-01-23T02:54:06;17.23;;;11.27;;
7823;SDS011;3957;48.61947800;9.05303100;2023-01-23T02:55:07;15.88;;;10.85;;
7823;SDS011;3957;48.61947800;9.05303100;2023-01-23T02:56:08;17.13;;;11.77;;
7823;SDS011;3957;48.61947800;9.05303100;2023-01-23T02:57:08;17.25;;;11.35;;
7823;SDS011;3957;48.61947800;9.05303100;2023-01-23T02:58:09;16.97;;;11.07;;
7823;SDS011;3957;48.61947800;9.05303100;2023-01-23T02:59:28;17.05;;;11.70;;
7823;SDS011;3957;48.61947800;9.05303100;2023-01-23T03:00:47;17.70;;;11.27;;
7823;SDS011;3957;48.61947800;9.05303100;2023-01-23T03:01:48;16.38;;;11.02;;
7823;SDS011;3957;48.61947800;9.05303100;2023-01-23T03:02:49;16.73;;;11.50;;
7823;SDS011;3957;48.61947800;9.05303100;2023-01-23T03:03:50;13.97;;;9.70;;
7823;SDS011;3957;48.61947800;9.05303100;2023-01-23T03:04:52;17.15;;;11.27;;
7823;SDS011;3957;48.61947800;9.05303100;2023-01-23T03:05:53;16.90;;;11.63;;
7823;SDS011;3957;48.61947800;9.05303100;2023-01-23T03:06:54;15.63;;;10.48;;
7823;SDS011;3957;48.61947800;9.05303100;2023-01-23T03:07:55;15.23;;;10.68;;
7823;SDS011;3957;48.61947800;9.05303100;2023-01-23T03:08:57;16.00;;;10.73;;
7823;SDS011;3957;48.61947800;9.05303100;2023-01-23T03:09:59;15.60;;;10.88;;
7823;SDS011;3957;48.61947800;9.05303100;2023-01-23T03:10:59;17.42;;;11.20;;
7823;SDS011;3957;48.61947800;9.05303100;2023-01-23T03:12:00;16.33;;;10.63;;
7823;SDS011;3957;48.61947800;9.05303100;2023-01-23T03:13:01;15.95;;;11.68;;
7823;SDS011;3957;48.61947800;9.05303100;2023-01-23T03:14:08;16.90;;;11.05;;
7823;SDS011;3957;48.61947800;9.05303100;2023-01-23T03:15:10;14.75;;;10.13;;
7823;SDS011;3957;48.61947800;9.05303100;2023-01-23T03:16:10;16.83;;;11.03;;
7823;SDS011;3957;48.61947800;9.05303100;2023-01-23T03:17:11;18.30;;;11.95;;
7823;SDS011;3957;48.61947800;9.05303100;2023-01-23T03:18:15;15.80;;;11.05;;
7823;SDS011;3957;48.61947800;9.05303100;2023-01-23T03:19:16;16.10;;;10.43;;
7823;SDS011;3957;48.61947800;9.05303100;2023-01-23T03:20:18;15.35;;;10.90;;
7823;SDS011;3957;48.61947800;9.05303100;2023-01-23T03:21:19;16.92;;;11.75;;
7823;SDS011;3957;48.61947800;9.05303100;2023-01-23T03:22:20;15.85;;;11.43;;
7823;SDS011;3957;48.61947800;9.05303100;2023-01-23T03:23:20;16.63;;;11.13;;
7823;SDS011;3957;48.61947800;9.05303100;2023-01-23T03:24:21;16.42;;;11.65;;
7823;SDS011;3957;48.61947800;9.05303100;2023-01-23T03:25:21;17.87;;;11.23;;
7823;SDS011;3957;48.61947800;9.05303100;2023-01-23T03:26:22;18.75;;;12.18;;
7823;SDS011;3957;48.61947800;9.05303100;2023-01-23T03:27:22;16.60;;;11.57;;
7823;SDS011;3957;48.61947800;9.05303100;2023-01-23T03:28:27;16.25;;;11.88;;
7823;SDS011;3957;48.61947800;9.05303100;2023-01-23T03:29:47;17.35;;;11.38;;
7823;SDS011;3957;48.61947800;9.05303100;2023-01-23T03:31:06;16.45;;;11.40;;
7823;SDS011;3957;48.61947800;9.05303100;2023-01-23T03:32:07;16.88;;;11.38;;
7823;SDS011;3957;48.61947800;9.05303100;2023-01-23T03:33:10;18.38;;;12.52;;
7823;SDS011;3957;48.61947800;9.05303100;2023-01-23T03:34:10;18.25;;;12.35;;
7823;SDS011;3957;48.61947800;9.05303100;2023-01-23T03:35:11;14.63;;;10.80;;
7823;SDS011;3957;48.61947800;9.05303100;2023-01-23T03:36:14;17.48;;;11.63;;
7823;SDS011;3957;48.61947800;9.05303100;2023-01-23T03:37:15;18.17;;;11.40;;
7823;SDS011;3957;48.61947800;9.05303100;2023-01-23T03:38:18;19.58;;;11.70;;
7823;SDS011;3957;48.61947800;9.05303100;2023-01-23T03:39:21;15.85;;;11.18;;
7823;SDS011;3957;48.61947800;9.05303100;2023-01-23T03:40:40;16.80;;;11.75;;
7823;SDS011;3957;48.61947800;9.05303100;2023-01-23T03:41:59;17.58;;;11.27;;
7823;SDS011;3957;48.61947800;9.05303100;2023-01-23T03:43:02;14.82;;;10.63;;
7823;SDS011;3957;48.61947800;9.05303100;2023-01-23T03:44:03;16.73;;;10.57;;
7823;SDS011;3957;48.61947800;9.05303100;2023-01-23T03:45:05;17.90;;;11.65;;
7823;SDS011;3957;48.61947800;9.05303100;2023-01-23T03:46:08;17.08;;;11.23;;
7823;SDS011;3957;48.61947800;9.05303100;2023-01-23T03:47:11;19.80;;;11.13;;
7823;SDS011;3957;48.61947800;9.05303100;2023-01-23T03:48:13;16.50;;;11.00;;
7823;SDS011;3957;48.61947800;9.05303100;2023-01-23T03:49:14;17.27;;;11.27;;
7823;SDS011;3957;48.61947800;9.05303100;2023-01-23T03:50:15;16.10;;;11.38;;
7823;SDS011;3957;48.61947800;9.05303100;2023-01-23T03:51:16;17.17;;;11.53;;
7823;SDS011;3957;48.61947800;9.05303100;2023-01-23T03:52:16;17.20;;;11.10;;
7823;SDS011;3957;48.61947800;9.05303100;2023-01-23T03:53:17;17.45;;;10.98;;
7823;SDS011;3957;48.61947800;9.05303100;2023-01-23T03:54:17;15.50;;;10.57;;
7823;SDS011;3957;48.61947800;9.05303100;2023-01-23T03:55:18;15.83;;;10.77;;
7823;SDS011;3957;48.61947800;9.05303100;2023-01-23T03:56:20;17.20;;;11.52;;
7823;SDS011;3957;48.61947800;9.05303100;2023-01-23T03:57:20;18.00;;;11.60;;
7823;SDS011;3957;48.61947800;9.05303100;2023-01-23T03:58:20;16.77;;;10.90;;
7823;SDS011;3957;48.61947800;9.05303100;2023-01-23T03:59:21;16.60;;;10.75;;
7823;SDS011;3957;48.61947800;9.05303100;2023-01-23T04:00:22;14.23;;;10.45;;
7823;SDS011;3957;48.61947800;9.05303100;2023-01-23T04:01:29;15.77;;;10.98;;
7823;SDS011;3957;48.61947800;9.05303100;2023-01-23T04:02:30;16.87;;;11.53;;
7823;SDS011;3957;48.61947800;9.05303100;2023-01-23T04:03:31;17.35;;;11.18;;
7823;SDS011;3957;48.61947800;9.05303100;2023-01-23T04:04:32;16.83;;;11.10;;
7823;SDS011;3957;48.61947800;9.05303100;2023-01-23T04:05:34;15.35;;;10.80;;
7823;SDS011;3957;48.61947800;9.05303100;2023-01-23T04:06:35;16.17;;;11.43;;
7823;SDS011;3957;48.61947800;9.05303100;2023-01-23T04:07:35;17.02;;;11.15;;
7823;SDS011;3957;48.61947800;9.05303100;2023-01-23T04:08:36;17.53;;;11.63;;
7823;SDS011;3957;48.61947800;9.05303100;2023-01-23T04:09:36;17.27;;;12.15;;
7823;SDS011;3957;48.61947800;9.05303100;2023-01-23T04:10:37;17.73;;;11.73;;
7823;SDS011;3957;48.61947800;9.05303100;2023-01-23T04:11:44;15.38;;;10.77;;
7823;SDS011;3957;48.61947800;9.05303100;2023-01-23T04:12:45;15.75;;;10.90;;
7823;SDS011;3957;48.61947800;9.05303100;2023-01-23T04:13:46;17.20;;;11.82;;
7823;SDS011;3957;48.61947800;9.05303100;2023-01-23T04:14:46;17.52;;;11.85;;
7823;SDS011;3957;48.61947800;9.05303100;2023-01-23T04:15:48;16.73;;;11.43;;
7823;SDS011;3957;48.61947800;9.05303100;2023-01-23T04:16:49;17.73;;;11.85;;
7823;SDS011;3957;48.61947800;9.05303100;2023-01-23T04:17:49;17.93;;;11.57;;
7823;SDS011;3957;48.61947800;9.05303100;2023-01-23T04:18:50;19.92;;;12.90;;
7823;SDS011;3957;48.61947800;9.05303100;2023-01-23T04:19:51;18.60;;;12.65;;
7823;SDS011;3957;48.61947800;9.05303100;2023-01-23T04:20:52;17.40;;;12.10;;
7823;SDS011;3957;48.61947800;9.05303100;2023-01-23T04:21:52;17.83;;;11.88;;
7823;SDS011;3957;48.61947800;9.05303100;2023-01-23T04:22:53;18.13;;;12.50;;
7823;SDS011;3957;48.61947800;9.05303100;2023-01-23T04:23:54;16.75;;;11.85;;
7823;SDS011;3957;48.61947800;9.05303100;2023-01-23T04:24:56;19.93;;;13.03;;
7823;SDS011;3957;48.61947800;9.05303100;2023-01-23T04:25:57;20.92;;;13.30;;
7823;SDS011;3957;48.61947800;9.05303100;2023-01-23T04:26:57;19.30;;;13.15;;
7823;SDS011;3957;48.61947800;9.05303100;2023-01-23T04:27:59;18.45;;;12.48;;
7823;SDS011;3957;48.61947800;9.05303100;2023-01-23T04:29:00;21.33;;;13.30;;
7823;SDS011;3957;48.61947800;9.05303100;2023-01-23T04:30:01;20.07;;;12.43;;
7823;SDS011;3957;48.61947800;9.05303100;2023-01-23T04:31:02;16.90;;;11.90;;
7823;SDS011;3957;48.61947800;9.05303100;2023-01-23T04:32:07;20.77;;;13.32;;
7823;SDS011;3957;48.61947800;9.05303100;2023-01-23T04:33:11;17.77;;;11.93;;
7823;SDS011;3957;48.61947800;9.05303100;2023-01-23T04:34:12;24.27;;;14.15;;
7823;SDS011;3957;48.61947800;9.05303100;2023-01-23T04:35:14;27.50;;;15.90;;
7823;SDS011;3957;48.61947800;9.05303100;2023-01-23T04:36:16;30.17;;;16.77;;
7823;SDS011;3957;48.61947800;9.05303100;2023-01-23T04:37:16;32.43;;;17.83;;
7823;SDS011;3957;48.61947800;9.05303100;2023-01-23T04:38:17;33.08;;;17.95;;
7823;SDS011;3957;48.61947800;9.05303100;2023-01-23T04:39:17;28.55;;;16.00;;
7823;SDS011;3957;48.61947800;9.05303100;2023-01-23T04:40:21;26.27;;;15.27;;
7823;SDS011;3957;48.61947800;9.05303100;2023-01-23T04:41:29;22.60;;;14.88;;
7823;SDS011;3957;48.61947800;9.05303100;2023-01-23T04:42:35;25.90;;;15.88;;
7823;SDS011;3957;48.61947800;9.05303100;2023-01-23T04:43:42;25.33;;;15.17;;
7823;SDS011;3957;48.61947800;9.05303100;2023-01-23T04:44:44;24.50;;;14.15;;
7823;SDS011;3957;48.61947800;9.05303100;2023-01-23T04:46:19;22.00;;;14.33;;
7823;SDS011;3957;48.61947800;9.05303100;2023-01-23T04:47:33;22.33;;;13.80;;
7823;SDS011;3957;48.61947800;9.05303100;2023-01-23T04:48:36;19.55;;;12.63;;
7823;SDS011;3957;48.61947800;9.05303100;2023-01-23T04:49:37;19.73;;;12.80;;
7823;SDS011;3957;48.61947800;9.05303100;2023-01-23T04:50:38;19.45;;;12.85;;
7823;SDS011;3957;48.61947800;9.05303100;2023-01-23T04:51:38;19.37;;;12.00;;
7823;SDS011;3957;48.61947800;9.05303100;2023-01-23T04:52:39;21.20;;;13.40;;
7823;SDS011;3957;48.61947800;9.05303100;2023-01-23T04:53:40;21.40;;;14.23;;
7823;SDS011;3957;48.61947800;9.05303100;2023-01-23T04:54:41;22.00;;;13.57;;
7823;SDS011;3957;48.61947800;9.05303100;2023-01-23T04:55:42;21.93;;;13.53;;
7823;SDS011;3957;48.61947800;9.05303100;2023-01-23T04:56:48;19.38;;;12.90;;
7823;SDS011;3957;48.61947800;9.05303100;2023-01-23T04:57:51;21.33;;;13.73;;
7823;SDS011;3957;48.61947800;9.05303100;2023-01-23T04:58:58;21.55;;;13.57;;
7823;SDS011;3957;48.61947800;9.05303100;2023-01-23T04:59:58;20.30;;;13.40;;
7823;SDS011;3957;48.61947800;9.05303100;2023-01-23T05:01:03;23.60;;;14.27;;
7823;SDS011;3957;48.61947800;9.05303100;2023-01-23T05:02:07;21.13;;;13.63;;
7823;SDS011;3957;48.61947800;9.05303100;2023-01-23T05:03:14;19.45;;;12.55;;
7823;SDS011;3957;48.61947800;9.05303100;2023-01-23T05:04:18;20.15;;;13.30;;
7823;SDS011;3957;48.61947800;9.05303100;2023-01-23T05:05:20;20.35;;;13.07;;
7823;SDS011;3957;48.61947800;9.05303100;2023-01-23T05:06:24;22.67;;;13.63;;
7823;SDS011;3957;48.61947800;9.05303100;2023-01-23T05:07:27;23.17;;;14.38;;
7823;SDS011;3957;48.61947800;9.05303100;2023-01-23T05:08:38;21.63;;;13.90;;
7823;SDS011;3957;48.61947800;9.05303100;2023-01-23T05:09:48;21.30;;;13.68;;
7823;SDS011;3957;48.61947800;9.05303100;2023-01-23T05:10:49;20.77;;;13.27;;
7823;SDS011;3957;48.61947800;9.05303100;2023-01-23T05:11:52;20.63;;;13.38;;
7823;SDS011;3957;48.61947800;9.05303100;2023-01-23T05:12:54;16.40;;;11.40;;
7823;SDS011;3957;48.61947800;9.05303100;2023-01-23T05:13:55;18.73;;;12.03;;
7823;SDS011;3957;48.61947800;9.05303100;2023-01-23T05:14:57;19.35;;;13.13;;
7823;SDS011;3957;48.61947800;9.05303100;2023-01-23T05:15:57;21.47;;;13.40;;
7823;SDS011;3957;48.61947800;9.05303100;2023-01-23T05:16:58;19.77;;;12.95;;
7823;SDS011;3957;48.61947800;9.05303100;2023-01-23T05:18:08;21.65;;;13.48;;
7823;SDS011;3957;48.61947800;9.05303100;2023-01-23T05:19:10;21.23;;;13.65;;
7823;SDS011;3957;48.61947800;9.05303100;2023-01-23T05:20:11;19.95;;;11.90;;
7823;SDS011;3957;48.61947800;9.05303100;2023-01-23T05:21:13;18.83;;;12.50;;
7823;SDS011;3957;48.61947800;9.05303100;2023-01-23T05:22:13;19.42;;;12.05;;
7823;SDS011;3957;48.61947800;9.05303100;2023-01-23T05:23:15;19.23;;;12.63;;
7823;SDS011;3957;48.61947800;9.05303100;2023-01-23T05:24:22;17.58;;;11.35;;
7823;SDS011;3957;48.61947800;9.05303100;2023-01-23T05:25:25;17.70;;;12.60;;
7823;SDS011;3957;48.61947800;9.05303100;2023-01-23T05:26:29;18.85;;;12.52;;
7823;SDS011;3957;48.61947800;9.05303100;2023-01-23T05:27:30;19.65;;;12.23;;
7823;SDS011;3957;48.61947800;9.05303100;2023-01-23T05:28:31;22.45;;;13.43;;
7823;SDS011;3957;48.61947800;9.05303100;2023-01-23T05:29:32;21.80;;;12.73;;
7823;SDS011;3957;48.61947800;9.05303100;2023-01-23T05:30:41;21.73;;;13.43;;
7823;SDS011;3957;48.61947800;9.05303100;2023-01-23T05:32:04;23.50;;;13.35;;
7823;SDS011;3957;48.61947800;9.05303100;2023-01-23T05:33:10;19.23;;;12.80;;
7823;SDS011;3957;48.61947800;9.05303100;2023-01-23T05:34:11;21.67;;;13.63;;
7823;SDS011;3957;48.61947800;9.05303100;2023-01-23T05:35:13;20.63;;;12.95;;
7823;SDS011;3957;48.61947800;9.05303100;2023-01-23T05:36:16;21.95;;;13.32;;